Time,TemperatureF,DewpointF,PressureIn,WindDirection,WindDirectionDegrees,WindSpeedMPH,WindSpeedGustMPH,Humidity,HourlyPrecipIn,Conditions,Clouds,dailyrainin,SoftwareType,DateUTC
2013-01-09 00:00:00,42.8,40.4,30.39,SSW,205,0.0,0.0,91,0.00,,,0.00,Wunderground v.1.15,2013-01-09 05:00:00,
2013-01-09 00:05:00,42.8,40.4,30.40,SSW,205,0.0,0.0,91,0.00,,,0.00,Wunderground v.1.15,2013-01-09 05:05:00,
2013-01-09 00:10:00,42.9,40.5,30.39,SSW,205,0.0,0.0,91,0.00,,,0.00,Wunderground v.1.15,2013-01-09 05:10:00,
2013-01-09 00:15:00,42.9,40.5,30.39,SSW,205,0.0,0.0,91,0.00,,,0.00,Wunderground v.1.15,2013-01-09 05:15:00,
2013-01-09 00:20:00,43.0,40.6,30.39,SSW,205,0.0,0.0,91,0.00,,,0.00,Wunderground v.1.15,2013-01-09 05:20:00,
2013-01-09 00:25:00,43.1,40.7,30.39,SSW,205,0.0,0.0,91,0.00,,,0.00,Wunderground v.1.15,2013-01-09 05:25:00,
2013-01-09 00:30:00,43.2,40.8,30.38,SSW,205,0.0,0.0,91,0.00,,,0.00,Wunderground v.1.15,2013-01-09 05:30:00,
2013-01-09 00:40:00,43.3,40.8,30.39,SSW,205,0.0,0.0,91,0.00,,,0.00,Wunderground v.1.15,2013-01-09 05:40:00,
2013-01-09 00:45:00,43.4,40.9,30.39,SSW,205,0.0,0.0,91,0.00,,,0.00,Wunderground v.1.15,2013-01-09 05:45:00,
2013-01-09 00:50:00,43.6,41.1,30.39,SSW,205,0.0,0.0,91,0.00,,,0.00,Wunderground v.1.15,2013-01-09 05:50:00,
2013-01-09 00:55:00,43.6,41.1,30.38,SSW,205,0.0,0.0,91,0.00,,,0.00,Wunderground v.1.15,2013-01-09 05:55:00,
2013-01-09 01:05:00,43.7,41.0,30.38,SSW,205,0.0,0.0,90,0.00,,,0.00,Wunderground v.1.15,2013-01-09 06:05:00,
2013-01-09 01:10:00,43.8,41.3,30.38,SSW,205,0.0,0.0,91,0.00,,,0.00,Wunderground v.1.15,2013-01-09 06:10:00,
2013-01-09 01:20:00,43.7,41.0,30.37,SSW,205,0.0,0.0,90,0.00,,,0.00,Wunderground v.1.15,2013-01-09 06:20:00,
2013-01-09 01:25:00,43.6,40.9,30.38,SSW,205,0.0,0.0,90,0.00,,,0.00,Wunderground v.1.15,2013-01-09 06:25:00,
2013-01-09 01:30:00,43.4,40.4,30.38,SSW,205,0.0,0.0,89,0.00,,,0.00,Wunderground v.1.15,2013-01-09 06:30:00,
2013-01-09 01:35:00,43.0,40.0,30.38,SSW,205,0.0,0.0,89,0.00,,,0.00,Wunderground v.1.15,2013-01-09 06:35:00,
2013-01-09 01:45:00,42.3,39.6,30.38,SSW,205,0.0,0.0,90,0.00,,,0.00,Wunderground v.1.15,2013-01-09 06:45:00,
2013-01-09 01:50:00,42.1,39.4,30.38,SSW,205,0.0,0.0,90,0.00,,,0.00,Wunderground v.1.15,2013-01-09 06:50:00,
2013-01-09 02:00:00,41.7,39.3,30.39,SSW,205,0.0,0.0,91,0.00,,,0.00,Wunderground v.1.15,2013-01-09 07:00:00,
2013-01-09 02:05:00,41.6,39.2,30.39,SSW,205,0.0,0.0,91,0.00,,,0.00,Wunderground v.1.15,2013-01-09 07:05:00,
2013-01-09 02:10:00,41.5,39.3,30.39,SSW,205,0.0,0.0,92,0.00,,,0.00,Wunderground v.1.15,2013-01-09 07:10:00,
2013-01-09 02:15:00,41.6,39.7,30.39,SSW,205,0.0,0.0,93,0.00,,,0.00,Wunderground v.1.15,2013-01-09 07:15:00,
2013-01-09 02:25:00,42.0,40.1,30.40,SSW,205,0.0,0.0,93,0.00,,,0.00,Wunderground v.1.15,2013-01-09 07:25:00,
2013-01-09 02:30:00,42.1,40.2,30.40,SSW,205,0.0,0.0,93,0.00,,,0.00,Wunderground v.1.15,2013-01-09 07:30:00,
2013-01-09 02:35:00,42.3,40.4,30.40,SSW,205,0.0,0.0,93,0.00,,,0.00,Wunderground v.1.15,2013-01-09 07:35:00,
2013-01-09 02:40:00,42.4,40.5,30.41,SSW,205,0.0,0.0,93,0.00,,,0.00,Wunderground v.1.15,2013-01-09 07:40:00,
2013-01-09 02:50:00,42.6,40.7,30.40,SSW,205,0.0,0.0,93,0.00,,,0.00,Wunderground v.1.15,2013-01-09 07:50:00,
2013-01-09 02:55:00,42.7,40.8,30.40,SSW,205,0.0,0.0,93,0.00,,,0.00,Wunderground v.1.15,2013-01-09 07:55:00,
2013-01-09 03:00:00,42.7,40.5,30.39,SSW,205,0.0,0.0,92,0.00,,,0.00,Wunderground v.1.15,2013-01-09 08:00:00,
2013-01-09 03:10:00,42.7,40.5,30.39,SSW,205,0.0,0.0,92,0.00,,,0.00,Wunderground v.1.15,2013-01-09 08:10:00,
2013-01-09 03:15:00,42.6,40.4,30.40,SSW,205,0.0,0.0,92,0.00,,,0.00,Wunderground v.1.15,2013-01-09 08:15:00,
2013-01-09 03:20:00,42.4,40.2,30.39,SSW,205,0.0,0.0,92,0.00,,,0.00,Wunderground v.1.15,2013-01-09 08:20:00,
2013-01-09 03:30:00,41.8,39.4,30.39,SSW,205,0.0,0.0,91,0.00,,,0.00,Wunderground v.1.15,2013-01-09 08:30:00,
2013-01-09 03:35:00,41.4,39.0,30.39,SSW,205,0.0,0.0,91,0.00,,,0.00,Wunderground v.1.15,2013-01-09 08:35:00,
2013-01-09 03:40:00,41.1,38.7,30.39,SSW,205,0.0,0.0,91,0.00,,,0.00,Wunderground v.1.15,2013-01-09 08:40:00,
2013-01-09 03:50:00,40.3,38.2,30.39,SSW,205,0.0,0.0,92,0.00,,,0.00,Wunderground v.1.15,2013-01-09 08:50:00,
2013-01-09 03:55:00,39.9,37.5,30.39,SSW,205,0.0,0.0,91,0.00,,,0.00,Wunderground v.1.15,2013-01-09 08:55:00,
2013-01-09 04:00:00,39.6,37.5,30.39,SSW,205,0.0,0.0,92,0.00,,,0.00,Wunderground v.1.15,2013-01-09 09:00:00,
2013-01-09 04:05:00,39.3,37.2,30.39,SSW,205,0.0,0.0,92,0.00,,,0.00,Wunderground v.1.15,2013-01-09 09:05:00,
2013-01-09 04:15:00,38.8,36.7,30.38,SSW,205,0.0,0.0,92,0.00,,,0.00,Wunderground v.1.15,2013-01-09 09:15:00,
2013-01-09 04:20:00,38.6,36.8,30.39,SSW,205,0.0,0.0,93,0.00,,,0.00,Wunderground v.1.15,2013-01-09 09:20:00,
2013-01-09 04:25:00,38.6,37.0,30.39,SSW,205,0.0,0.0,94,0.00,,,0.00,Wunderground v.1.15,2013-01-09 09:25:00,
2013-01-09 04:30:00,38.4,36.8,30.39,SSW,205,0.0,0.0,94,0.00,,,0.00,Wunderground v.1.15,2013-01-09 09:30:00,
2013-01-09 04:40:00,37.9,36.3,30.39,SSW,205,0.0,0.0,94,0.00,,,0.00,Wunderground v.1.15,2013-01-09 09:40:00,
2013-01-09 04:45:00,37.9,36.3,30.39,SSW,205,0.0,0.0,94,0.00,,,0.00,Wunderground v.1.15,2013-01-09 09:45:00,
2013-01-09 04:55:00,37.5,35.9,30.39,SSW,205,0.0,0.0,94,0.00,,,0.00,Wunderground v.1.15,2013-01-09 09:55:00,
2013-01-09 05:00:00,37.4,35.8,30.39,SSW,205,0.0,0.0,94,0.00,,,0.00,Wunderground v.1.15,2013-01-09 10:00:00,
2013-01-09 05:05:00,37.2,35.6,30.39,SSW,205,0.0,0.0,94,0.00,,,0.00,Wunderground v.1.15,2013-01-09 10:05:00,
2013-01-09 05:10:00,37.0,35.4,30.38,SSW,205,0.0,0.0,94,0.00,,,0.00,Wunderground v.1.15,2013-01-09 10:10:00,
2013-01-09 05:20:00,37.0,35.7,30.38,SSW,205,0.0,0.0,95,0.00,,,0.00,Wunderground v.1.15,2013-01-09 10:20:00,
2013-01-09 05:25:00,36.8,35.5,30.38,SSW,205,0.0,0.0,95,0.00,,,0.00,Wunderground v.1.15,2013-01-09 10:25:00,
2013-01-09 05:30:00,36.8,35.5,30.38,SSW,205,0.0,0.0,95,0.00,,,0.00,Wunderground v.1.15,2013-01-09 10:30:00,
2013-01-09 05:40:00,36.5,35.2,30.38,SSW,205,0.0,0.0,95,0.00,,,0.00,Wunderground v.1.15,2013-01-09 10:40:00,
2013-01-09 05:45:00,36.4,35.1,30.38,SSW,205,0.0,0.0,95,0.00,,,0.00,Wunderground v.1.15,2013-01-09 10:45:00,
2013-01-09 05:50:00,36.3,35.0,30.38,SSW,205,0.0,0.0,95,0.00,,,0.00,Wunderground v.1.15,2013-01-09 10:50:00,
2013-01-09 05:55:00,36.4,35.1,30.38,SSW,205,0.0,0.0,95,0.00,,,0.00,Wunderground v.1.15,2013-01-09 10:55:00,
2013-01-09 06:05:00,36.2,34.9,30.39,SSW,205,0.0,0.0,95,0.00,,,0.00,Wunderground v.1.15,2013-01-09 11:05:00,
2013-01-09 06:10:00,36.1,34.8,30.39,SSW,205,0.0,0.0,95,0.00,,,0.00,Wunderground v.1.15,2013-01-09 11:10:00,
2013-01-09 06:15:00,36.0,34.7,30.39,SSW,205,0.0,0.0,95,0.00,,,0.00,Wunderground v.1.15,2013-01-09 11:15:00,
2013-01-09 06:25:00,35.7,34.4,30.38,SSW,205,0.0,0.0,95,0.00,,,0.00,Wunderground v.1.15,2013-01-09 11:25:00,
2013-01-09 06:30:00,35.6,34.3,30.38,SSW,205,0.0,0.0,95,0.00,,,0.00,Wunderground v.1.15,2013-01-09 11:30:00,
2013-01-09 06:35:00,35.5,34.2,30.39,SSW,205,0.0,0.0,95,0.00,,,0.00,Wunderground v.1.15,2013-01-09 11:35:00,
2013-01-09 06:45:00,35.4,34.4,30.40,SSW,205,0.0,0.0,96,0.00,,,0.00,Wunderground v.1.15,2013-01-09 11:45:00,
2013-01-09 06:50:00,35.3,34.0,30.40,SSW,205,0.0,0.0,95,0.00,,,0.00,Wunderground v.1.15,2013-01-09 11:50:00,
2013-01-09 06:55:00,35.2,33.9,30.40,SSW,205,0.0,0.0,95,0.00,,,0.00,Wunderground v.1.15,2013-01-09 11:55:00,
2013-01-09 07:00:00,35.0,33.7,30.40,SSW,205,0.0,0.0,95,0.00,,,0.00,Wunderground v.1.15,2013-01-09 12:00:00,
2013-01-09 07:10:00,35.1,34.1,30.41,SSW,205,0.0,0.0,96,0.00,,,0.00,Wunderground v.1.15,2013-01-09 12:10:00,
2013-01-09 07:15:00,35.0,34.0,30.41,SSW,205,0.0,0.0,96,0.00,,,0.00,Wunderground v.1.15,2013-01-09 12:15:00,
2013-01-09 07:20:00,34.9,33.9,30.41,SSW,205,0.0,0.0,96,0.00,,,0.00,Wunderground v.1.15,2013-01-09 12:20:00,
2013-01-09 07:30:00,34.9,33.9,30.41,SSW,205,0.0,0.0,96,0.00,,,0.00,Wunderground v.1.15,2013-01-09 12:30:00,
2013-01-09 07:35:00,34.8,33.8,30.41,SSW,205,0.0,0.0,96,0.00,,,0.00,Wunderground v.1.15,2013-01-09 12:35:00,
2013-01-09 07:40:00,34.8,33.8,30.41,SSW,205,0.0,0.0,96,0.00,,,0.00,Wunderground v.1.15,2013-01-09 12:40:00,
2013-01-09 07:45:00,34.7,33.7,30.41,SSW,205,0.0,0.0,96,0.00,,,0.00,Wunderground v.1.15,2013-01-09 12:45:00,
2013-01-09 07:55:00,34.6,33.6,30.41,SSW,205,0.0,0.0,96,0.00,,,0.00,Wunderground v.1.15,2013-01-09 12:55:00,
2013-01-09 08:00:00,34.7,33.7,30.41,SSW,205,0.0,0.0,96,0.00,,,0.00,Wunderground v.1.15,2013-01-09 13:00:00,
2013-01-09 08:10:00,35.0,34.0,30.42,SSW,205,0.0,0.0,96,0.00,,,0.00,Wunderground v.1.15,2013-01-09 13:10:00,
2013-01-09 08:15:00,35.5,34.7,30.42,SSW,205,0.0,0.0,97,0.00,,,0.00,Wunderground v.1.15,2013-01-09 13:15:00,
2013-01-09 08:20:00,35.8,35.0,30.43,SSW,205,0.0,0.0,97,0.00,,,0.00,Wunderground v.1.15,2013-01-09 13:20:00,
2013-01-09 08:30:00,36.2,35.4,30.43,SSW,205,0.0,0.0,97,0.00,,,0.00,Wunderground v.1.15,2013-01-09 13:30:00,
2013-01-09 08:35:00,36.4,35.6,30.43,SSW,205,0.0,0.0,97,0.00,,,0.00,Wunderground v.1.15,2013-01-09 13:35:00,
2013-01-09 08:40:00,36.6,35.8,30.43,SSW,205,0.0,0.0,97,0.00,,,0.00,Wunderground v.1.15,2013-01-09 13:40:00,
2013-01-09 08:50:00,37.4,36.6,30.42,SSW,205,0.0,0.0,97,0.00,,,0.00,Wunderground v.1.15,2013-01-09 13:50:00,
2013-01-09 08:55:00,37.7,36.9,30.43,SSW,205,0.0,0.0,97,0.00,,,0.00,Wunderground v.1.15,2013-01-09 13:55:00,
2013-01-09 09:00:00,38.1,37.3,30.43,SSW,205,0.0,0.0,97,0.00,,,0.00,Wunderground v.1.15,2013-01-09 14:00:00,
2013-01-09 09:05:00,38.9,38.1,30.44,SSW,205,0.0,0.0,97,0.00,,,0.00,Wunderground v.1.15,2013-01-09 14:05:00,
2013-01-09 09:15:00,40.3,39.5,30.44,SSW,205,0.0,0.0,97,0.00,,,0.00,Wunderground v.1.15,2013-01-09 14:15:00,
2013-01-09 09:20:00,41.8,41.3,30.44,SSW,205,0.0,0.0,98,0.00,,,0.00,Wunderground v.1.15,2013-01-09 14:20:00,
2013-01-09 09:25:00,42.9,42.4,30.44,SSW,205,0.0,0.0,98,0.00,,,0.00,Wunderground v.1.15,2013-01-09 14:25:00,
2013-01-09 09:30:00,44.0,43.5,30.44,SSW,205,0.0,0.0,98,0.00,,,0.00,Wunderground v.1.15,2013-01-09 14:30:00,
2013-01-09 09:40:00,46.0,45.2,30.45,SSW,207,0.0,1.0,97,0.00,,,0.00,Wunderground v.1.15,2013-01-09 14:40:00,
2013-01-09 09:45:00,47.2,45.0,30.46,SSW,207,0.0,1.0,92,0.00,,,0.00,Wunderground v.1.15,2013-01-09 14:45:00,
2013-01-09 09:50:00,48.0,44.6,30.45,SSW,207,0.0,0.0,88,0.00,,,0.00,Wunderground v.1.15,2013-01-09 14:50:00,
2013-01-09 10:00:00,49.1,44.8,30.45,SSW,207,0.0,0.0,85,0.00,,,0.00,Wunderground v.1.15,2013-01-09 15:00:00,
2013-01-09 10:05:00,49.5,44.9,30.45,SSW,207,0.0,0.0,84,0.00,,,0.00,Wunderground v.1.15,2013-01-09 15:05:00,
2013-01-09 10:10:00,49.9,45.3,30.46,SSW,207,0.0,0.0,84,0.00,,,0.00,Wunderground v.1.15,2013-01-09 15:10:00,
2013-01-09 10:20:00,50.5,45.2,30.46,SSW,207,0.0,0.0,82,0.00,,,0.00,Wunderground v.1.15,2013-01-09 15:20:00,
2013-01-09 10:25:00,50.8,45.5,30.45,SSW,207,0.0,0.0,82,0.00,,,0.00,Wunderground v.1.15,2013-01-09 15:25:00,
2013-01-09 10:30:00,51.1,45.5,30.45,SSW,207,0.0,0.0,81,0.00,,,0.00,Wunderground v.1.15,2013-01-09 15:30:00,
2013-01-09 10:40:00,51.4,45.1,30.45,SSW,207,0.0,0.0,79,0.00,,,0.00,Wunderground v.1.15,2013-01-09 15:40:00,
2013-01-09 10:45:00,51.6,45.3,30.45,SSW,207,0.0,0.0,79,0.00,,,0.00,Wunderground v.1.15,2013-01-09 15:45:00,
2013-01-09 10:50:00,51.9,45.3,30.44,SSW,207,0.0,0.0,78,0.00,,,0.00,Wunderground v.1.15,2013-01-09 15:50:00,
2013-01-09 10:55:00,52.4,45.7,30.44,SSW,207,0.0,0.0,78,0.00,,,0.00,Wunderground v.1.15,2013-01-09 15:55:00,
2013-01-09 11:05:00,53.4,46.0,30.44,SW,223,0.0,0.0,76,0.00,,,0.00,Wunderground v.1.15,2013-01-09 16:05:00,
2013-01-09 11:10:00,54.2,46.4,30.43,SSE,157,0.0,0.0,75,0.00,,,0.00,Wunderground v.1.15,2013-01-09 16:10:00,
2013-01-09 11:15:00,54.9,47.1,30.43,SW,221,0.0,0.0,75,0.00,,,0.00,Wunderground v.1.15,2013-01-09 16:15:00,
2013-01-09 11:25:00,56.6,47.7,30.43,SSE,161,0.0,0.0,72,0.00,,,0.00,Wunderground v.1.15,2013-01-09 16:25:00,
2013-01-09 11:30:00,57.1,48.2,30.43,South,177,0.0,0.0,72,0.00,,,0.00,Wunderground v.1.15,2013-01-09 16:30:00,
2013-01-09 11:35:00,57.5,47.8,30.42,SSE,154,1.0,1.0,70,0.00,,,0.00,Wunderground v.1.15,2013-01-09 16:35:00,
2013-01-09 11:45:00,58.0,47.9,30.42,South,188,0.0,1.0,69,0.00,,,0.00,Wunderground v.1.15,2013-01-09 16:45:00,
2013-01-09 11:50:00,58.5,48.4,30.41,SSE,156,0.0,1.0,69,0.00,,,0.00,Wunderground v.1.15,2013-01-09 16:50:00,
2013-01-09 11:55:00,58.9,48.7,30.41,SSW,200,1.0,1.0,69,0.00,,,0.00,Wunderground v.1.15,2013-01-09 16:55:00,
2013-01-09 12:00:00,59.2,48.6,30.40,SSE,157,1.0,2.0,68,0.00,,,0.00,Wunderground v.1.15,2013-01-09 17:00:00,
2013-01-09 12:10:00,60.1,49.5,30.40,SSE,158,1.0,3.0,68,0.00,,,0.00,Wunderground v.1.15,2013-01-09 17:10:00,
2013-01-09 12:15:00,60.4,50.2,30.40,SSW,199,1.0,3.0,69,0.00,,,0.00,Wunderground v.1.15,2013-01-09 17:15:00,
2013-01-09 12:20:00,60.8,49.8,30.39,South,174,1.0,1.0,67,0.00,,,0.00,Wunderground v.1.15,2013-01-09 17:20:00,
2013-01-09 12:30:00,61.6,50.1,30.39,SSE,160,1.0,1.0,66,0.00,,,0.00,Wunderground v.1.15,2013-01-09 17:30:00,
2013-01-09 12:35:00,62.0,50.9,30.39,SSW,205,1.0,2.0,67,0.00,,,0.00,Wunderground v.1.15,2013-01-09 17:35:00,
2013-01-09 12:40:00,62.2,50.7,30.39,WNW,287,1.0,1.0,66,0.00,,,0.00,Wunderground v.1.15,2013-01-09 17:40:00,
2013-01-09 12:45:00,62.4,51.3,30.39,WSW,252,1.0,1.0,67,0.00,,,0.00,Wunderground v.1.15,2013-01-09 17:45:00,
2013-01-09 12:55:00,62.9,51.0,30.38,SSW,201,2.0,3.0,65,0.00,,,0.00,Wunderground v.1.15,2013-01-09 17:55:00,
2013-01-09 13:00:00,62.9,51.0,30.38,West,269,1.0,1.0,65,0.00,,,0.00,Wunderground v.1.15,2013-01-09 18:00:00,
2013-01-09 13:05:00,62.8,50.9,30.37,SSE,163,0.0,1.0,65,0.00,,,0.00,Wunderground v.1.15,2013-01-09 18:05:00,
2013-01-09 13:15:00,62.1,49.8,30.37,SSW,199,1.0,2.0,64,0.00,,,0.00,Wunderground v.1.15,2013-01-09 18:15:00,
2013-01-09 13:20:00,61.8,49.9,30.38,SSW,196,0.0,0.0,65,0.00,,,0.00,Wunderground v.1.15,2013-01-09 18:20:00,
2013-01-09 13:25:00,61.3,49.8,30.37,SSE,157,0.0,2.0,66,0.00,,,0.00,Wunderground v.1.15,2013-01-09 18:25:00,
2013-01-09 13:35:00,60.6,50.0,30.37,SSE,157,1.0,1.0,68,0.00,,,0.00,Wunderground v.1.15,2013-01-09 18:35:00,
2013-01-09 13:40:00,60.4,49.8,30.37,SSE,157,1.0,2.0,68,0.00,,,0.00,Wunderground v.1.15,2013-01-09 18:40:00,
2013-01-09 13:45:00,60.5,50.3,30.37,SSE,157,0.0,2.0,69,0.00,,,0.00,Wunderground v.1.15,2013-01-09 18:45:00,
2013-01-09 13:50:00,60.7,50.1,30.37,WSW,246,0.0,0.0,68,0.00,,,0.00,Wunderground v.1.15,2013-01-09 18:50:00,
2013-01-09 13:55:00,60.7,49.7,30.37,SW,229,0.0,0.0,67,0.00,,,0.00,Wunderground v.1.15,2013-01-09 18:55:00,
2013-01-09 14:00:00,60.8,49.8,30.37,SW,229,0.0,0.0,67,0.00,,,0.00,Wunderground v.1.15,2013-01-09 19:00:00,
2013-01-09 14:05:00,60.8,49.8,30.37,SW,229,0.0,0.0,67,0.00,,,0.00,Wunderground v.1.15,2013-01-09 19:05:00,
2013-01-09 14:10:00,60.7,50.1,30.37,SW,229,0.0,0.0,68,0.00,,,0.00,Wunderground v.1.15,2013-01-09 19:10:00,
2013-01-09 14:15:00,60.7,50.5,30.37,SW,229,0.0,0.0,69,0.00,,,0.00,Wunderground v.1.15,2013-01-09 19:15:00,
2013-01-09 14:20:00,60.8,50.6,30.37,SW,232,0.0,0.0,69,0.00,,,0.00,Wunderground v.1.15,2013-01-09 19:20:00,
2013-01-09 14:25:00,61.0,51.1,30.37,SE,146,0.0,1.0,70,0.00,,,0.00,Wunderground v.1.15,2013-01-09 19:25:00,
2013-01-09 14:30:00,61.3,51.0,30.37,South,188,0.0,1.0,69,0.00,,,0.00,Wunderground v.1.15,2013-01-09 19:30:00,
2013-01-09 14:40:00,61.8,51.9,30.38,SSW,200,1.0,1.0,70,0.00,,,0.00,Wunderground v.1.15,2013-01-09 19:40:00,
2013-01-09 14:45:00,62.1,51.4,30.37,SW,234,1.0,1.0,68,0.00,,,0.00,Wunderground v.1.15,2013-01-09 19:45:00,
2013-01-09 14:50:00,62.2,51.5,30.37,WSW,242,1.0,1.0,68,0.00,,,0.00,Wunderground v.1.15,2013-01-09 19:50:00,
2013-01-09 14:55:00,62.2,51.5,30.37,South,185,1.0,1.0,68,0.00,,,0.00,Wunderground v.1.15,2013-01-09 19:55:00,
2013-01-09 15:05:00,62.1,51.4,30.37,WSW,252,0.0,1.0,68,0.00,,,0.00,Wunderground v.1.15,2013-01-09 20:05:00,
2013-01-09 15:10:00,62.1,51.8,30.37,South,174,0.0,0.0,69,0.00,,,0.00,Wunderground v.1.15,2013-01-09 20:10:00,
2013-01-09 15:15:00,62.1,51.4,30.37,SW,223,0.0,0.0,68,0.00,,,0.00,Wunderground v.1.15,2013-01-09 20:15:00,
2013-01-09 15:25:00,62.2,51.9,30.37,SW,233,0.0,1.0,69,0.00,,,0.00,Wunderground v.1.15,2013-01-09 20:25:00,
2013-01-09 15:30:00,62.2,51.9,30.37,WSW,250,0.0,0.0,69,0.00,,,0.00,Wunderground v.1.15,2013-01-09 20:30:00,
2013-01-09 15:35:00,62.2,51.9,30.37,SSE,168,0.0,0.0,69,0.00,,,0.00,Wunderground v.1.15,2013-01-09 20:35:00,
2013-01-09 15:45:00,62.1,51.8,30.37,SW,223,0.0,1.0,69,0.00,,,0.00,Wunderground v.1.15,2013-01-09 20:45:00,
2013-01-09 15:50:00,62.0,51.7,30.37,SSW,205,0.0,0.0,69,0.00,,,0.00,Wunderground v.1.15,2013-01-09 20:50:00,
2013-01-09 15:55:00,62.0,51.7,30.37,SSW,205,0.0,0.0,69,0.00,,,0.00,Wunderground v.1.15,2013-01-09 20:55:00,
2013-01-09 16:05:00,61.7,52.2,30.37,SSW,205,0.0,0.0,71,0.00,,,0.00,Wunderground v.1.15,2013-01-09 21:05:00,
2013-01-09 16:10:00,61.4,51.9,30.38,SSW,205,0.0,0.0,71,0.00,,,0.00,Wunderground v.1.15,2013-01-09 21:10:00,
2013-01-09 16:15:00,61.2,52.8,30.38,SSW,205,0.0,0.0,74,0.00,,,0.00,Wunderground v.1.15,2013-01-09 21:15:00,
2013-01-09 16:20:00,60.8,52.5,30.37,SSW,205,0.0,0.0,74,0.00,,,0.00,Wunderground v.1.15,2013-01-09 21:20:00,
2013-01-09 16:30:00,60.2,52.6,30.37,SSW,205,0.0,0.0,76,0.00,,,0.00,Wunderground v.1.15,2013-01-09 21:30:00,
2013-01-09 16:35:00,59.9,52.0,30.37,SSW,205,0.0,0.0,75,0.00,,,0.00,Wunderground v.1.15,2013-01-09 21:35:00,
2013-01-09 16:40:00,59.7,52.5,30.37,SSW,205,0.0,0.0,77,0.00,,,0.00,Wunderground v.1.15,2013-01-09 21:40:00,
2013-01-09 16:45:00,59.3,52.4,30.37,SSW,205,0.0,0.0,78,0.00,,,0.00,Wunderground v.1.15,2013-01-09 21:45:00,
2013-01-09 16:55:00,58.8,52.0,30.37,SSW,205,0.0,0.0,78,0.00,,,0.00,Wunderground v.1.15,2013-01-09 21:55:00,
2013-01-09 17:00:00,58.6,51.8,30.37,SSW,205,0.0,0.0,78,0.00,,,0.00,Wunderground v.1.15,2013-01-09 22:00:00,
2013-01-09 17:05:00,58.2,51.7,30.37,SSW,205,0.0,0.0,79,0.00,,,0.00,Wunderground v.1.15,2013-01-09 22:05:00,
2013-01-09 17:15:00,57.6,51.8,30.38,SSW,205,0.0,0.0,81,0.00,,,0.00,Wunderground v.1.15,2013-01-09 22:15:00,
2013-01-09 17:20:00,57.3,51.5,30.38,SSW,205,0.0,0.0,81,0.00,,,0.00,Wunderground v.1.15,2013-01-09 22:20:00,
2013-01-09 17:25:00,57.1,51.3,30.38,SSW,205,0.0,0.0,81,0.00,,,0.00,Wunderground v.1.15,2013-01-09 22:25:00,
2013-01-09 17:35:00,56.7,51.3,30.38,SSW,205,0.0,0.0,82,0.00,,,0.00,Wunderground v.1.15,2013-01-09 22:35:00,
2013-01-09 17:40:00,56.5,51.1,30.38,SSW,205,0.0,0.0,82,0.00,,,0.00,Wunderground v.1.15,2013-01-09 22:40:00,
2013-01-09 17:45:00,56.3,50.9,30.38,SSW,205,0.0,0.0,82,0.00,,,0.00,Wunderground v.1.15,2013-01-09 22:45:00,
2013-01-09 17:55:00,55.7,50.6,30.38,SSW,205,0.0,0.0,83,0.00,,,0.00,Wunderground v.1.15,2013-01-09 22:55:00,
2013-01-09 18:00:00,55.4,50.3,30.37,SSW,205,0.0,0.0,83,0.00,,,0.00,Wunderground v.1.15,2013-01-09 23:00:00,
2013-01-09 18:05:00,55.2,50.4,30.37,SSW,205,0.0,0.0,84,0.00,,,0.00,Wunderground v.1.15,2013-01-09 23:05:00,
2013-01-09 18:10:00,55.0,50.3,30.36,SSW,205,0.0,0.0,84,0.00,,,0.00,Wunderground v.1.15,2013-01-09 23:10:00,
2013-01-09 18:20:00,54.9,50.5,30.37,SSW,205,0.0,0.0,85,0.00,,,0.00,Wunderground v.1.15,2013-01-09 23:20:00,
2013-01-09 18:25:00,54.7,50.3,30.36,SSW,205,0.0,0.0,85,0.00,,,0.00,Wunderground v.1.15,2013-01-09 23:25:00,
2013-01-09 18:30:00,54.6,50.2,30.36,SSW,205,0.0,0.0,85,0.00,,,0.00,Wunderground v.1.15,2013-01-09 23:30:00,
2013-01-09 18:35:00,54.5,50.4,30.37,SSW,205,0.0,0.0,86,0.00,,,0.00,Wunderground v.1.15,2013-01-09 23:35:00,
2013-01-09 18:45:00,54.3,50.2,30.37,West,277,0.0,0.0,86,0.00,,,0.00,Wunderground v.1.15,2013-01-09 23:45:00,
2013-01-09 18:50:00,54.2,49.8,30.37,West,277,0.0,0.0,85,0.00,,,0.00,Wunderground v.1.15,2013-01-09 23:50:00,
2013-01-09 19:00:00,53.8,49.7,30.37,West,277,0.0,0.0,86,0.00,,,0.00,Wunderground v.1.15,2013-01-10 00:00:00,
2013-01-09 19:05:00,53.7,49.6,30.38,West,277,0.0,0.0,86,0.00,,,0.00,Wunderground v.1.15,2013-01-10 00:05:00,
2013-01-09 19:10:00,53.5,49.4,30.38,West,277,0.0,0.0,86,0.00,,,0.00,Wunderground v.1.15,2013-01-10 00:10:00,
2013-01-09 19:15:00,53.5,49.4,30.38,West,277,0.0,0.0,86,0.00,,,0.00,Wunderground v.1.15,2013-01-10 00:15:00,
2013-01-09 19:25:00,53.1,48.7,30.38,West,277,0.0,0.0,85,0.00,,,0.00,Wunderground v.1.15,2013-01-10 00:25:00,
2013-01-09 19:30:00,52.8,48.7,30.38,West,277,0.0,0.0,86,0.00,,,0.00,Wunderground v.1.15,2013-01-10 00:30:00,
2013-01-09 19:40:00,52.4,48.9,30.38,West,277,0.0,0.0,88,0.00,,,0.00,Wunderground v.1.15,2013-01-10 00:40:00,
2013-01-09 19:45:00,52.6,48.5,30.38,West,277,0.0,0.0,86,0.00,,,0.00,Wunderground v.1.15,2013-01-10 00:45:00,
2013-01-09 19:50:00,52.2,48.1,30.38,West,277,0.0,0.0,86,0.00,,,0.00,Wunderground v.1.15,2013-01-10 00:50:00,
2013-01-09 19:55:00,51.7,47.6,30.39,West,277,0.0,0.0,86,0.00,,,0.00,Wunderground v.1.15,2013-01-10 00:55:00,
2013-01-09 20:05:00,50.9,46.9,30.38,West,277,0.0,0.0,86,0.00,,,0.00,Wunderground v.1.15,2013-01-10 01:05:00,
2013-01-09 20:10:00,50.4,47.0,30.39,West,277,0.0,0.0,88,0.00,,,0.00,Wunderground v.1.15,2013-01-10 01:10:00,
2013-01-09 20:15:00,50.1,47.0,30.39,West,277,0.0,0.0,89,0.00,,,0.00,Wunderground v.1.15,2013-01-10 01:15:00,
2013-01-09 20:25:00,49.6,46.8,30.39,West,277,0.0,0.0,90,0.00,,,0.00,Wunderground v.1.15,2013-01-10 01:25:00,
2013-01-09 20:30:00,49.2,46.1,30.39,West,277,0.0,0.0,89,0.00,,,0.00,Wunderground v.1.15,2013-01-10 01:30:00,
2013-01-09 20:35:00,49.0,46.5,30.39,West,277,0.0,0.0,91,0.00,,,0.00,Wunderground v.1.15,2013-01-10 01:35:00,
2013-01-09 20:45:00,48.6,46.1,30.40,West,277,0.0,0.0,91,0.00,,,0.00,Wunderground v.1.15,2013-01-10 01:45:00,
2013-01-09 20:50:00,48.4,46.2,30.40,West,277,0.0,0.0,92,0.00,,,0.00,Wunderground v.1.15,2013-01-10 01:50:00,
2013-01-09 20:55:00,48.3,46.1,30.40,West,277,0.0,0.0,92,0.00,,,0.00,Wunderground v.1.15,2013-01-10 01:55:00,
2013-01-09 21:05:00,48.1,45.9,30.40,West,277,0.0,0.0,92,0.00,,,0.00,Wunderground v.1.15,2013-01-10 02:05:00,
2013-01-09 21:10:00,47.9,45.7,30.40,West,277,0.0,0.0,92,0.00,,,0.00,Wunderground v.1.15,2013-01-10 02:10:00,
2013-01-09 21:15:00,47.8,45.6,30.40,West,277,0.0,0.0,92,0.00,,,0.00,Wunderground v.1.15,2013-01-10 02:15:00,
2013-01-09 21:25:00,47.8,46.2,30.41,West,277,0.0,0.0,94,0.00,,,0.00,Wunderground v.1.15,2013-01-10 02:25:00,
2013-01-09 21:30:00,47.6,45.4,30.41,West,277,0.0,0.0,92,0.00,,,0.00,Wunderground v.1.15,2013-01-10 02:30:00,
2013-01-09 21:35:00,47.4,45.5,30.41,West,277,0.0,0.0,93,0.00,,,0.00,Wunderground v.1.15,2013-01-10 02:35:00,
2013-01-09 21:40:00,47.5,45.9,30.41,West,277,0.0,0.0,94,0.00,,,0.00,Wunderground v.1.15,2013-01-10 02:40:00,
2013-01-09 21:50:00,47.4,45.8,30.41,West,277,0.0,0.0,94,0.00,,,0.00,Wunderground v.1.15,2013-01-10 02:50:00,
2013-01-09 21:55:00,47.3,45.7,30.41,West,277,0.0,0.0,94,0.00,,,0.00,Wunderground v.1.15,2013-01-10 02:55:00,
2013-01-09 22:00:00,47.2,45.6,30.41,West,277,0.0,0.0,94,0.00,,,0.00,Wunderground v.1.15,2013-01-10 03:00:00,
2013-01-09 22:10:00,46.9,45.0,30.42,West,277,0.0,0.0,93,0.00,,,0.00,Wunderground v.1.15,2013-01-10 03:10:00,
2013-01-09 22:15:00,46.8,44.9,30.42,West,277,0.0,0.0,93,0.00,,,0.00,Wunderground v.1.15,2013-01-10 03:15:00,
2013-01-09 22:20:00,46.8,45.2,30.41,West,277,0.0,0.0,94,0.00,,,0.00,Wunderground v.1.15,2013-01-10 03:20:00,
2013-01-09 22:25:00,46.8,45.4,30.42,West,277,0.0,0.0,95,0.00,,,0.00,Wunderground v.1.15,2013-01-10 03:25:00,
2013-01-09 22:35:00,46.8,45.2,30.42,West,277,0.0,0.0,94,0.00,,,0.00,Wunderground v.1.15,2013-01-10 03:35:00,
2013-01-09 22:40:00,46.9,45.5,30.42,West,277,0.0,0.0,95,0.00,,,0.00,Wunderground v.1.15,2013-01-10 03:40:00,
2013-01-09 22:45:00,47.0,45.6,30.41,West,277,0.0,0.0,95,0.00,,,0.00,Wunderground v.1.15,2013-01-10 03:45:00,
2013-01-09 22:55:00,47.1,45.7,30.41,West,277,0.0,0.0,95,0.00,,,0.00,Wunderground v.1.15,2013-01-10 03:55:00,
2013-01-09 23:00:00,47.2,45.8,30.41,West,277,0.0,0.0,95,0.00,,,0.00,Wunderground v.1.15,2013-01-10 04:00:00,
2013-01-09 23:05:00,47.3,45.9,30.42,West,277,0.0,0.0,95,0.00,,,0.00,Wunderground v.1.15,2013-01-10 04:05:00,
2013-01-09 23:15:00,47.5,46.1,30.42,West,277,0.0,0.0,95,0.00,,,0.00,Wunderground v.1.15,2013-01-10 04:15:00,
2013-01-09 23:20:00,47.7,46.3,30.42,West,277,0.0,0.0,95,0.00,,,0.00,Wunderground v.1.15,2013-01-10 04:20:00,
2013-01-09 23:25:00,48.0,46.9,30.42,West,277,0.0,0.0,96,0.00,,,0.00,Wunderground v.1.15,2013-01-10 04:25:00,
2013-01-09 23:30:00,48.3,47.2,30.42,West,277,0.0,0.0,96,0.00,,,0.00,Wunderground v.1.15,2013-01-10 04:30:00,
2013-01-09 23:40:00,48.4,47.0,30.42,West,277,0.0,0.0,95,0.00,,,0.00,Wunderground v.1.15,2013-01-10 04:40:00,
2013-01-09 23:45:00,48.6,47.2,30.41,West,277,0.0,0.0,95,0.00,,,0.00,Wunderground v.1.15,2013-01-10 04:45:00,
2013-01-09 23:50:00,48.8,47.7,30.41,West,277,0.0,0.0,96,0.00,,,0.00,Wunderground v.1.15,2013-01-10 04:50:00,